createdAt,value
2023-05-12T00:01:00.076Z,12.83
2023-05-12T00:03:26.802Z,10.23
2023-05-12T00:05:54.015Z,9.30
2023-05-12T00:08:20.893Z,9.87
2023-05-12T00:10:47.559Z,11.13
2023-05-12T00:13:14.606Z,11.00
2023-05-12T00:15:41.672Z,11.43
2023-05-12T00:18:08.256Z,11.80
2023-05-12T00:20:35.084Z,10.17
2023-05-12T00:23:01.572Z,9.53
2023-05-12T00:25:28.098Z,9.93
2023-05-12T00:27:55.037Z,8.73
2023-05-12T00:30:21.791Z,9.13
2023-05-12T00:32:48.923Z,10.13
2023-05-12T00:35:16.377Z,13.97
2023-05-12T00:37:43.196Z,10.97
2023-05-12T00:40:09.833Z,10.77
2023-05-12T00:42:36.444Z,9.57
2023-05-12T00:45:03.250Z,11.57
2023-05-12T00:47:30.483Z,15.93
2023-05-12T00:49:57.068Z,15.70
2023-05-12T00:52:23.582Z,19.80
2023-05-12T00:54:50.162Z,21.90
2023-05-12T00:57:17.273Z,20.03
2023-05-12T00:59:43.804Z,16.60
2023-05-12T01:02:14.184Z,16.47
2023-05-12T01:04:40.981Z,14.77
2023-05-12T01:07:10.653Z,12.33
2023-05-12T01:09:37.323Z,11.30
2023-05-12T01:12:04.381Z,10.33
2023-05-12T01:14:31.371Z,9.47
2023-05-12T01:17:00.243Z,9.73
2023-05-12T01:19:34.392Z,10.57
2023-05-12T01:22:01.169Z,11.57
2023-05-12T01:24:29.505Z,11.93
2023-05-12T01:26:56.140Z,13.33
2023-05-12T01:29:23.966Z,14.13
2023-05-12T01:31:51.160Z,13.80
2023-05-12T01:34:18.860Z,14.50
2023-05-12T01:36:45.483Z,12.87
2023-05-12T01:39:12.884Z,18.07
2023-05-12T01:41:39.639Z,14.93
2023-05-12T01:44:06.333Z,15.53
2023-05-12T01:46:33.398Z,18.10
2023-05-12T01:49:00.017Z,18.13
2023-05-12T01:51:26.943Z,17.27
2023-05-12T01:53:53.532Z,18.03
2023-05-12T01:56:20.323Z,21.10
2023-05-12T01:58:47.429Z,18.87
2023-05-12T02:01:14.136Z,17.87
2023-05-12T02:03:40.752Z,17.80
2023-05-12T02:06:07.323Z,18.87
2023-05-12T02:08:33.832Z,18.73
2023-05-12T02:11:07.201Z,19.30
2023-05-12T02:13:35.333Z,18.37
2023-05-12T02:16:02.258Z,16.90
2023-05-12T02:18:31.306Z,19.73
2023-05-12T02:21:02.449Z,16.70
2023-05-12T02:23:29.079Z,15.57
2023-05-12T02:25:58.555Z,14.20
2023-05-12T02:28:25.093Z,14.77
2023-05-12T02:30:53.206Z,14.80
2023-05-12T02:33:23.310Z,13.57
2023-05-12T02:35:49.991Z,16.47
2023-05-12T02:38:16.556Z,11.20
2023-05-12T02:40:43.259Z,10.37
2023-05-12T02:43:09.796Z,12.93
2023-05-12T02:45:36.488Z,8.40
2023-05-12T02:48:03.283Z,8.00
2023-05-12T02:50:29.798Z,8.00
2023-05-12T02:52:56.319Z,7.47
2023-05-12T02:55:23.175Z,7.83
2023-05-12T02:57:49.657Z,9.93
2023-05-12T03:00:18.507Z,8.50
2023-05-12T03:02:45.201Z,7.80
2023-05-12T03:05:11.792Z,8.80
2023-05-12T03:07:38.390Z,8.43
2023-05-12T03:10:05.266Z,9.20
2023-05-12T03:12:32.109Z,9.20
2023-05-12T03:14:58.600Z,9.43
2023-05-12T03:17:25.426Z,9.67
2023-05-12T03:19:51.986Z,10.27
2023-05-12T03:22:18.531Z,9.43
2023-05-12T03:24:45.489Z,9.80
2023-05-12T03:27:12.660Z,10.10
2023-05-12T03:29:39.199Z,10.93
2023-05-12T03:32:05.975Z,10.83
2023-05-12T03:34:32.525Z,11.20
2023-05-12T03:36:59.021Z,11.70
2023-05-12T03:39:25.580Z,10.83
2023-05-12T03:41:52.086Z,11.60
2023-05-12T03:44:18.973Z,11.27
2023-05-12T03:46:45.903Z,11.13
2023-05-12T03:49:12.812Z,12.87
2023-05-12T03:51:39.439Z,12.87
2023-05-12T03:54:05.919Z,14.60
2023-05-12T03:56:32.487Z,11.17
2023-05-12T03:58:59.058Z,10.83
2023-05-12T04:01:26.051Z,8.73
2023-05-12T04:03:52.685Z,8.13
2023-05-12T04:06:19.376Z,8.03
2023-05-12T04:08:45.910Z,6.53
2023-05-12T04:11:12.448Z,5.70
2023-05-12T04:13:38.939Z,6.13
2023-05-12T04:16:05.877Z,4.70
2023-05-12T04:18:32.554Z,4.67
2023-05-12T04:20:59.149Z,4.83
2023-05-12T04:23:25.788Z,4.70
2023-05-12T04:25:52.395Z,4.33
2023-05-12T04:28:18.901Z,5.60
2023-05-12T04:30:45.833Z,5.27
2023-05-12T04:33:12.465Z,3.30
2023-05-12T04:35:39.054Z,5.10
2023-05-12T04:38:05.568Z,3.30
2023-05-12T04:40:34.252Z,3.53
2023-05-12T04:43:01.609Z,3.33
2023-05-12T04:45:28.070Z,3.90
2023-05-12T04:47:55.540Z,3.73
2023-05-12T04:50:22.275Z,7.37
2023-05-12T04:52:48.980Z,6.47
2023-05-12T04:55:15.623Z,9.50
2023-05-12T04:57:42.204Z,3.67
2023-05-12T05:00:09.337Z,3.73
2023-05-12T05:02:36.094Z,3.40
2023-05-12T05:05:02.862Z,6.50
2023-05-12T05:07:29.560Z,2.80
2023-05-12T05:09:56.099Z,3.23
2023-05-12T05:12:22.682Z,3.93
2023-05-12T05:14:49.511Z,2.60
2023-05-12T05:17:16.007Z,2.90
2023-05-12T05:19:55.149Z,2.83
2023-05-12T05:22:25.397Z,3.90
2023-05-12T05:24:52.135Z,4.37
2023-05-12T05:27:18.863Z,3.90
2023-05-12T05:29:45.804Z,4.50
2023-05-12T05:32:12.450Z,3.87
2023-05-12T05:34:39.149Z,4.40
2023-05-12T05:37:05.848Z,3.97
2023-05-12T05:39:32.439Z,3.63
2023-05-12T05:41:58.972Z,5.83
2023-05-12T05:44:26.165Z,2.50
2023-05-12T05:46:52.695Z,4.00
2023-05-12T05:49:19.304Z,3.20
2023-05-12T05:51:45.960Z,5.33
2023-05-12T05:54:12.525Z,2.83
2023-05-12T05:56:39.030Z,19.53
2023-05-12T05:59:05.763Z,9.53
2023-05-12T06:01:32.993Z,6.30
2023-05-12T06:03:59.815Z,9.73
2023-05-12T06:06:26.446Z,6.93
2023-05-12T06:08:56.092Z,5.60
2023-05-12T06:11:22.793Z,9.80
2023-05-12T06:13:49.341Z,3.93
2023-05-12T06:16:15.923Z,2.93
2023-05-12T06:18:42.545Z,3.20
2023-05-12T06:21:09.948Z,7.07
2023-05-12T06:23:36.456Z,3.10
2023-05-12T06:26:03.346Z,3.57
2023-05-12T06:28:30.163Z,3.17
2023-05-12T06:30:56.672Z,3.20
2023-05-12T06:33:23.240Z,3.13
2023-05-12T06:35:49.818Z,3.73
2023-05-12T06:38:16.601Z,6.73
2023-05-12T06:40:43.122Z,6.07
2023-05-12T06:43:10.020Z,4.27
2023-05-12T06:45:36.815Z,4.20
2023-05-12T06:48:06.240Z,5.10
2023-05-12T06:50:32.873Z,4.30
2023-05-12T06:52:59.352Z,5.33
2023-05-12T06:55:26.288Z,3.80
2023-05-12T06:57:55.957Z,4.23
2023-05-12T07:00:23.637Z,5.57
2023-05-12T07:02:50.153Z,4.73
2023-05-12T07:05:16.832Z,5.07
2023-05-12T07:07:43.354Z,3.43
2023-05-12T07:10:13.027Z,5.73
2023-05-12T07:12:39.707Z,4.30
2023-05-12T07:15:06.565Z,25.63
2023-05-12T07:17:33.121Z,26.40
2023-05-12T07:19:59.699Z,23.63
2023-05-12T07:22:26.609Z,11.50
2023-05-12T07:24:53.293Z,5.40
2023-05-12T07:27:19.897Z,6.33
2023-05-12T07:29:46.634Z,12.60
2023-05-12T07:32:13.544Z,14.60
2023-05-12T07:34:40.134Z,9.23
2023-05-12T07:37:07.662Z,9.97
2023-05-12T07:39:34.394Z,4.20
2023-05-12T07:42:00.951Z,5.77
2023-05-12T07:44:28.544Z,4.00
2023-05-12T07:46:55.051Z,4.80
2023-05-12T07:49:23.493Z,3.03
2023-05-12T07:51:50.050Z,3.83
2023-05-12T07:54:16.524Z,6.37
2023-05-12T07:56:42.971Z,3.97
2023-05-12T07:59:09.704Z,3.77
2023-05-12T08:01:36.247Z,5.00
2023-05-12T08:04:02.833Z,6.27
2023-05-12T08:06:29.502Z,4.77
2023-05-12T08:08:58.200Z,6.93
2023-05-12T08:11:25.128Z,6.43
2023-05-12T08:13:51.719Z,6.87
2023-05-12T08:16:18.470Z,5.53
2023-05-12T08:18:45.073Z,9.90
2023-05-12T08:21:12.696Z,6.07
2023-05-12T08:23:39.244Z,4.80
2023-05-12T08:26:05.998Z,5.73
2023-05-12T08:28:32.742Z,4.07
2023-05-12T08:31:01.505Z,4.97
2023-05-12T08:33:29.386Z,3.70
2023-05-12T08:35:55.978Z,3.07
2023-05-12T08:38:22.538Z,4.73
2023-05-12T08:41:09.525Z,4.87
2023-05-12T08:43:44.419Z,3.90
2023-05-12T08:46:11.880Z,5.00
2023-05-12T08:48:38.895Z,3.30
2023-05-12T08:51:07.247Z,5.93
2023-05-12T08:53:34.655Z,6.13
2023-05-12T08:57:09.671Z,3.40
2023-05-12T08:58:50.283Z,3.60
2023-05-12T09:01:17.561Z,3.47
2023-05-12T09:03:44.259Z,4.13
2023-05-12T09:06:11.752Z,5.80
2023-05-12T09:08:39.305Z,3.40
2023-05-12T09:11:05.860Z,5.43
2023-05-12T09:13:51.059Z,6.57
2023-05-12T09:16:18.927Z,5.53
2023-05-12T09:18:51.788Z,3.63
2023-05-12T09:21:18.716Z,6.13
2023-05-12T09:23:52.260Z,3.20
2023-05-12T09:26:19.776Z,5.23
2023-05-12T09:28:46.358Z,3.53
2023-05-12T09:31:17.641Z,5.07
2023-05-12T09:33:44.192Z,6.17
2023-05-12T09:36:11.054Z,4.57
2023-05-12T09:38:37.548Z,3.47
2023-05-12T09:41:04.029Z,3.80
2023-05-12T09:43:31.805Z,3.43
2023-05-12T09:46:04.308Z,3.43
2023-05-12T09:48:30.862Z,6.37
2023-05-12T09:50:57.835Z,9.87
2023-05-12T09:53:24.814Z,5.43
2023-05-12T09:55:51.340Z,6.80
2023-05-12T09:58:18.775Z,4.20
2023-05-12T10:01:02.360Z,4.70
2023-05-12T10:03:33.535Z,5.47
2023-05-12T10:06:02.995Z,3.80
2023-05-12T10:08:43.892Z,6.60
2023-05-12T10:11:10.871Z,3.57
2023-05-12T10:13:38.146Z,5.67
2023-05-12T10:16:04.890Z,5.87
2023-05-12T10:18:32.331Z,3.60
2023-05-12T10:20:59.809Z,4.53
2023-05-12T10:23:27.252Z,4.13
2023-05-12T10:26:01.924Z,8.57
2023-05-12T10:28:29.274Z,5.20
2023-05-12T10:30:56.955Z,9.20
2023-05-12T10:33:23.618Z,6.77
2023-05-12T10:35:51.926Z,4.00
2023-05-12T10:38:21.719Z,3.13
2023-05-12T10:40:55.934Z,5.00
2023-05-12T10:43:26.898Z,3.53
2023-05-12T10:46:08.653Z,3.40
2023-05-12T10:48:35.162Z,3.00
2023-05-12T10:51:08.619Z,4.37
2023-05-12T10:53:48.363Z,4.83
2023-05-12T10:56:21.804Z,7.10
2023-05-12T10:59:07.566Z,6.47
2023-05-12T11:01:35.868Z,5.53
2023-05-12T11:04:14.358Z,3.77
2023-05-12T11:06:41.414Z,4.07
2023-05-12T11:09:09.069Z,3.03
2023-05-12T11:11:36.463Z,3.00
2023-05-12T11:14:03.094Z,6.07
2023-05-12T11:16:29.660Z,8.67
2023-05-12T11:19:05.787Z,5.40
2023-05-12T11:21:33.483Z,4.93
2023-05-12T11:24:00.725Z,10.77
2023-05-12T11:26:27.731Z,5.37
2023-05-12T11:28:54.998Z,5.40
2023-05-12T11:31:22.102Z,3.83
2023-05-12T11:33:51.858Z,4.80
2023-05-12T11:36:25.100Z,3.23
2023-05-12T11:38:51.836Z,7.47
2023-05-12T11:41:36.894Z,8.53
2023-05-12T11:44:13.434Z,9.73
2023-05-12T11:46:39.999Z,7.47
2023-05-12T11:49:10.965Z,3.40
2023-05-12T11:51:41.404Z,6.70
2023-05-12T11:54:07.918Z,3.13
2023-05-12T11:56:34.917Z,3.43
2023-05-12T11:59:01.450Z,3.17
2023-05-12T12:01:27.922Z,5.40
2023-05-12T12:03:54.988Z,8.83
2023-05-12T12:06:22.855Z,3.87
2023-05-12T12:08:49.955Z,3.83
2023-05-12T12:11:17.906Z,4.10
2023-05-12T12:13:48.872Z,4.97
2023-05-12T12:16:15.617Z,30.77
2023-05-12T12:18:42.335Z,6.77
2023-05-12T12:21:08.810Z,4.80
2023-05-12T12:23:47.394Z,5.87
2023-05-12T12:26:17.564Z,9.50
2023-05-12T12:28:46.353Z,4.53
2023-05-12T12:31:13.141Z,4.77
2023-05-12T12:33:39.907Z,6.77
2023-05-12T12:36:06.539Z,4.80
2023-05-12T12:38:33.282Z,6.27
2023-05-12T12:41:00.431Z,8.63
2023-05-12T12:43:27.485Z,7.33
2023-05-12T12:45:54.801Z,5.83
2023-05-12T12:48:21.941Z,4.30
2023-05-12T12:50:48.396Z,5.77
2023-05-12T12:53:14.881Z,8.23
2023-05-12T12:55:41.844Z,4.90
2023-05-12T12:58:08.340Z,4.90
2023-05-12T13:00:34.969Z,9.87
2023-05-12T13:03:01.846Z,5.50
2023-05-12T13:05:28.486Z,5.77
2023-05-12T13:07:55.676Z,7.73
2023-05-12T13:10:22.134Z,6.50
2023-05-12T13:12:48.855Z,5.73
2023-05-12T13:15:16.307Z,4.40
2023-05-12T13:17:46.292Z,3.70
2023-05-12T13:20:16.095Z,4.03
2023-05-12T13:22:43.155Z,5.47
2023-05-12T13:25:09.946Z,8.23
2023-05-12T13:27:37.027Z,3.23
2023-05-12T13:30:13.368Z,4.33
2023-05-12T13:32:40.326Z,4.13
2023-05-12T13:35:07.144Z,6.47
2023-05-12T13:37:33.593Z,3.93
2023-05-12T13:40:00.082Z,3.60
2023-05-12T13:42:27.034Z,6.77
2023-05-12T13:44:53.570Z,5.40
2023-05-12T13:47:20.081Z,5.03
2023-05-12T13:49:46.660Z,4.73
2023-05-12T13:52:13.159Z,6.43
2023-05-12T13:54:39.624Z,4.13
2023-05-12T13:57:08.577Z,4.50
2023-05-12T13:59:35.069Z,3.63
2023-05-12T14:02:01.734Z,4.43
2023-05-12T14:04:28.383Z,4.40
2023-05-12T14:06:55.487Z,4.60
2023-05-12T14:09:22.512Z,6.27
2023-05-12T14:11:51.616Z,6.67
2023-05-12T14:14:18.084Z,3.80
2023-05-12T14:16:44.595Z,5.07
2023-05-12T14:19:11.536Z,6.47
2023-05-12T14:21:40.585Z,5.67
2023-05-12T14:24:08.100Z,7.90
2023-05-12T14:26:34.967Z,4.60
2023-05-12T14:29:01.525Z,7.93
2023-05-12T14:31:28.470Z,4.70
2023-05-12T14:33:55.932Z,4.23
2023-05-12T14:36:22.388Z,5.53
2023-05-12T14:38:49.465Z,6.03
2023-05-12T14:41:16.009Z,9.03
2023-05-12T14:50:00.539Z,4.63
2023-05-12T14:52:27.010Z,3.37
2023-05-12T14:54:53.704Z,5.33
2023-05-12T14:57:20.156Z,3.47
2023-05-12T14:59:46.691Z,3.33
2023-05-12T15:02:13.490Z,4.37
2023-05-12T15:04:40.044Z,4.30
2023-05-12T15:07:06.645Z,12.70
2023-05-12T15:09:33.130Z,3.63
2023-05-12T15:11:59.708Z,7.40
2023-05-12T15:14:26.298Z,6.37
2023-05-12T15:16:52.842Z,4.03
2023-05-12T15:19:21.714Z,4.47
2023-05-12T15:21:48.443Z,4.23
2023-05-12T15:24:15.462Z,5.07
2023-05-12T15:26:41.988Z,4.53
2023-05-12T15:29:08.557Z,6.93
2023-05-12T15:31:35.409Z,3.93
2023-05-12T15:34:02.195Z,3.27
2023-05-12T15:36:28.725Z,5.20
2023-05-12T15:38:55.275Z,4.90
2023-05-12T15:41:22.551Z,4.57
2023-05-12T15:43:49.192Z,7.33
2023-05-12T15:46:15.839Z,9.83
2023-05-12T15:48:42.399Z,8.47
2023-05-12T15:51:08.973Z,8.17
2023-05-12T15:53:36.227Z,6.93
2023-05-12T15:56:03.926Z,6.67
2023-05-12T15:58:31.555Z,6.23
2023-05-12T16:00:58.978Z,8.03
2023-05-12T16:03:25.664Z,6.90
2023-05-12T16:05:52.751Z,7.23
2023-05-12T16:08:19.326Z,4.23
2023-05-12T16:10:45.921Z,4.23
2023-05-12T16:13:13.745Z,8.40
2023-05-12T16:15:40.535Z,7.00
2023-05-12T16:18:09.125Z,7.73
2023-05-12T16:20:38.016Z,4.97
2023-05-12T16:23:04.846Z,10.03
2023-05-12T16:25:32.249Z,4.87
2023-05-12T16:27:58.782Z,5.33
2023-05-12T16:30:25.461Z,4.57
2023-05-12T16:32:52.097Z,5.07
2023-05-12T16:35:18.909Z,5.07
2023-05-12T16:37:45.714Z,5.47
2023-05-12T16:40:12.365Z,5.73
2023-05-12T16:42:39.091Z,6.23
2023-05-12T16:45:06.730Z,9.30
2023-05-12T16:47:33.419Z,5.83
2023-05-12T16:50:00.154Z,7.00
2023-05-12T16:52:27.023Z,7.57
2023-05-12T16:54:55.749Z,6.67
2023-05-12T16:57:22.300Z,6.90
2023-05-12T16:59:48.886Z,10.93
2023-05-12T17:02:15.802Z,11.40
2023-05-12T17:04:42.669Z,9.97
2023-05-12T17:07:09.837Z,8.33
2023-05-12T17:09:36.551Z,10.27
2023-05-12T17:12:05.184Z,14.60
2023-05-12T17:14:31.815Z,10.60
2023-05-12T17:17:00.145Z,8.90
2023-05-12T17:19:27.368Z,11.50
2023-05-12T17:21:54.207Z,14.83
2023-05-12T17:24:20.981Z,10.00
2023-05-12T17:26:47.861Z,10.27
2023-05-12T17:29:14.895Z,13.20
2023-05-12T17:31:42.191Z,11.27
2023-05-12T17:34:09.578Z,10.97
2023-05-12T17:36:36.555Z,9.43
2023-05-12T17:39:03.271Z,10.77
2023-05-12T17:41:29.948Z,9.60
2023-05-12T17:43:56.498Z,10.30
2023-05-12T17:46:23.476Z,10.20
2023-05-12T17:48:50.134Z,11.33
2023-05-12T17:51:17.121Z,8.47
2023-05-12T17:53:46.464Z,6.87
2023-05-12T17:56:13.168Z,7.60
2023-05-12T17:58:39.849Z,9.80
2023-05-12T18:01:06.681Z,7.83
2023-05-12T18:03:33.489Z,7.43
2023-05-12T18:06:00.216Z,6.13
2023-05-12T18:08:27.470Z,10.30
2023-05-12T18:10:54.145Z,8.93
2023-05-12T18:13:21.015Z,9.13
2023-05-12T18:15:48.924Z,6.40
2023-05-12T18:18:15.865Z,7.10
2023-05-12T18:20:42.939Z,7.67
2023-05-12T18:23:09.670Z,6.30
2023-05-12T18:25:36.511Z,6.60
2023-05-12T18:28:03.221Z,8.20
2023-05-12T18:30:29.829Z,8.60
2023-05-12T18:32:56.562Z,7.93
2023-05-12T18:35:23.630Z,8.03
2023-05-12T18:37:50.551Z,10.17
2023-05-12T18:40:17.215Z,6.63
2023-05-12T18:42:44.190Z,9.97
2023-05-12T18:45:11.118Z,7.10
2023-05-12T18:47:37.960Z,6.10
2023-05-12T18:50:04.761Z,6.23
2023-05-12T18:52:31.519Z,8.57
2023-05-12T18:55:00.721Z,8.50
2023-05-12T18:57:27.296Z,7.73
2023-05-12T18:59:54.047Z,8.30
2023-05-12T19:02:21.044Z,7.37
2023-05-12T19:04:48.879Z,6.83
2023-05-12T19:07:15.984Z,8.10
2023-05-12T19:09:46.431Z,6.63
2023-05-12T19:12:13.164Z,8.93
2023-05-12T19:14:40.333Z,10.50
2023-05-12T19:17:07.942Z,6.27
2023-05-12T19:19:34.989Z,6.80
2023-05-12T19:22:01.877Z,9.57
2023-05-12T19:24:28.778Z,6.70
2023-05-12T19:26:57.938Z,7.03
2023-05-12T19:29:24.786Z,6.97
2023-05-12T19:31:53.242Z,7.47
2023-05-12T19:34:20.254Z,9.97
2023-05-12T19:36:46.945Z,8.00
2023-05-12T19:39:13.560Z,7.47
2023-05-12T19:41:41.352Z,6.80
2023-05-12T19:44:08.170Z,9.07
2023-05-12T19:46:35.463Z,9.80
2023-05-12T19:49:02.487Z,8.00
2023-05-12T19:51:29.367Z,8.43
2023-05-12T19:53:56.044Z,9.00
2023-05-12T19:56:22.632Z,7.53
2023-05-12T19:58:49.299Z,8.73
2023-05-12T20:01:16.074Z,10.77
2023-05-12T20:03:42.793Z,8.27
2023-05-12T20:06:09.418Z,9.13
2023-05-12T20:08:36.057Z,7.77
2023-05-12T20:11:02.621Z,8.20
2023-05-12T20:13:29.148Z,7.83
2023-05-12T20:15:55.781Z,15.33
2023-05-12T20:18:23.759Z,7.83
2023-05-12T20:20:53.796Z,8.50
2023-05-12T20:23:20.387Z,8.50
2023-05-12T20:25:47.012Z,8.43
2023-05-12T20:28:14.170Z,9.00
2023-05-12T20:30:41.218Z,8.90
2023-05-12T20:33:07.961Z,9.27
2023-05-12T20:35:34.646Z,10.10
2023-05-12T20:38:01.296Z,9.07
2023-05-12T20:40:28.155Z,12.07
2023-05-12T20:42:56.128Z,10.37
2023-05-12T20:45:23.457Z,10.57
2023-05-12T20:47:50.546Z,10.80
2023-05-12T20:50:17.289Z,11.93
2023-05-12T20:52:45.757Z,11.57
2023-05-12T20:55:12.295Z,10.40
2023-05-12T20:57:40.354Z,11.03
2023-05-12T21:00:08.147Z,9.20
2023-05-12T21:02:34.858Z,12.07
2023-05-12T21:05:01.484Z,9.27
2023-05-12T21:07:30.116Z,9.67
2023-05-12T21:09:58.445Z,12.03
2023-05-12T21:12:25.025Z,8.97
2023-05-12T21:14:51.812Z,9.83
2023-05-12T21:17:18.929Z,10.77
2023-05-12T21:19:45.549Z,10.77
2023-05-12T21:22:13.104Z,9.53
2023-05-12T21:24:40.239Z,9.93
2023-05-12T21:27:07.276Z,9.20
2023-05-12T21:29:34.526Z,10.93
2023-05-12T21:32:01.190Z,10.17
2023-05-12T21:34:28.308Z,9.37
2023-05-12T21:36:54.993Z,9.07
2023-05-12T21:39:22.192Z,10.77
2023-05-12T21:41:48.948Z,9.70
2023-05-12T21:44:15.571Z,10.30
2023-05-12T21:46:42.778Z,10.13
2023-05-12T21:49:09.414Z,9.90
2023-05-12T21:51:35.999Z,9.90
2023-05-12T21:54:02.582Z,10.50
2023-05-12T21:56:29.215Z,10.23
2023-05-12T21:58:55.999Z,9.30
2023-05-12T22:01:22.888Z,9.63
2023-05-12T22:03:49.940Z,9.83
2023-05-12T22:06:16.853Z,9.40
2023-05-12T22:08:43.549Z,9.33
2023-05-12T22:11:10.148Z,9.87
2023-05-12T22:13:36.696Z,9.40
2023-05-12T22:16:04.126Z,9.73
2023-05-12T22:18:30.929Z,9.23
2023-05-12T22:20:57.565Z,11.13
2023-05-12T22:23:24.124Z,9.63
2023-05-12T22:25:50.821Z,10.27
2023-05-12T22:28:18.382Z,11.13
2023-05-12T22:30:44.942Z,8.97
2023-05-12T22:33:11.586Z,8.30
2023-05-12T22:35:38.108Z,9.80
2023-05-12T22:38:04.641Z,9.03
2023-05-12T22:40:31.660Z,9.77
2023-05-12T22:42:58.203Z,9.07
2023-05-12T22:45:25.541Z,10.00
2023-05-12T22:47:52.387Z,9.60
2023-05-12T22:50:19.259Z,10.50
2023-05-12T22:52:45.981Z,9.23
2023-05-12T22:55:12.757Z,9.50
2023-05-12T22:57:41.083Z,9.83
2023-05-12T23:00:07.928Z,9.43
2023-05-12T23:02:34.497Z,8.67
2023-05-12T23:05:01.336Z,10.00
2023-05-12T23:07:27.961Z,9.07
2023-05-12T23:09:54.616Z,8.60
2023-05-12T23:12:21.178Z,10.57
2023-05-12T23:14:50.822Z,11.00
2023-05-12T23:17:17.369Z,10.97
2023-05-12T23:19:43.907Z,12.73
2023-05-12T23:22:10.451Z,10.37
2023-05-12T23:24:37.221Z,9.20
2023-05-12T23:27:03.842Z,10.10
2023-05-12T23:29:30.580Z,14.33
2023-05-12T23:31:58.986Z,10.00
2023-05-12T23:34:26.246Z,10.43
2023-05-12T23:36:52.762Z,10.20
2023-05-12T23:39:19.261Z,10.77
2023-05-12T23:41:45.820Z,12.27
2023-05-12T23:44:12.518Z,10.97
2023-05-12T23:46:39.115Z,9.50
2023-05-12T23:49:05.658Z,10.10
2023-05-12T23:51:33.015Z,11.80
2023-05-12T23:53:59.514Z,10.17
2023-05-12T23:56:26.037Z,10.00
2023-05-12T23:58:52.593Z,10.00
